Time;durP1;ratioP1;P1;durP2;ratioP2;P2;SDS_P1;SDS_P2;PMS_P1;PMS_P2;Temp;Humidity;BMP_temperature;BMP_pressure;BME280_temperature;BME280_humidity;BME280_pressure;Samples;Min_cycle;Max_cycle;Signal;HPM_P1;HPM_P2
2021/05/23 00:01:05;;;;;;;7.50;4.50;;;;;;;16.94;65.47;100597.72;5051202;28;20029;-72
2021/05/23 00:03:31;;;;;;;8.18;4.50;;;;;;;16.60;65.65;100539.03;5035178;28;20104;-73
2021/05/23 00:05:57;;;;;;;9.00;4.28;;;;;;;17.06;65.60;100623.09;5052702;28;20119;-70
2021/05/23 00:08:23;;;;;;;8.07;4.68;;;;;;;16.72;64.79;100546.13;5034813;28;20072;-76
2021/05/23 00:11:01;;;;;;;6.47;4.80;;;;;;;17.02;65.49;100613.47;5052625;28;20017;-71
2021/05/23 00:13:31;;;;;;;7.82;4.80;;;;;;;16.93;65.41;100606.41;5047202;28;20032;-74
2021/05/23 00:16:00;;;;;;;7.07;5.07;;;;;;;16.78;65.74;100599.22;5052977;28;20039;-70
2021/05/23 00:18:29;;;;;;;7.18;4.38;;;;;;;16.37;66.10;100551.75;5052319;28;20517;-71
2021/05/23 00:20:55;;;;;;;4.95;4.40;;;;;;;16.13;67.19;100572.22;5052468;28;20086;-70
2021/05/23 00:23:21;;;;;;;7.35;5.15;;;;;;;15.52;69.09;100566.81;5052637;28;20045;-71
2021/05/23 00:25:47;;;;;;;8.82;5.32;;;;;;;15.35;70.88;100579.50;5052472;28;20027;-73
2021/05/23 00:28:13;;;;;;;6.78;5.93;;;;;;;15.30;71.98;100584.66;5052219;28;20528;-69
2021/05/23 00:30:39;;;;;;;6.72;5.47;;;;;;;15.43;71.91;100585.75;5052202;28;20024;-72
2021/05/23 00:33:08;;;;;;;8.15;5.97;;;;;;;15.58;71.92;100587.75;5039476;28;20495;-71
2021/05/23 00:35:34;;;;;;;7.13;5.82;;;;;;;15.62;71.24;100573.94;5033266;28;20026;-72
2021/05/23 00:38:00;;;;;;;6.03;4.95;;;;;;;15.51;70.63;100545.16;5034154;28;20045;-71
2021/05/23 00:40:26;;;;;;;6.50;5.25;;;;;;;15.89;69.50;100580.53;5032523;28;20025;-72
2021/05/23 00:42:51;;;;;;;6.40;5.25;;;;;;;15.96;68.93;100600.63;5028936;28;20475;-70
2021/05/23 00:45:18;;;;;;;5.88;5.25;;;;;;;16.02;68.75;100597.22;5050705;28;20135;-77
2021/05/23 00:47:45;;;;;;;5.80;5.18;;;;;;;16.07;68.42;100600.78;5034129;28;20065;-73
2021/05/23 00:50:14;;;;;;;6.15;5.55;;;;;;;16.16;68.63;100608.75;5052242;28;20036;-69
2021/05/23 00:52:40;;;;;;;14.82;5.60;;;;;;;16.20;68.07;100598.38;5051855;28;20017;-70
2021/05/23 00:55:06;;;;;;;6.35;4.90;;;;;;;16.27;68.14;100608.03;5051908;28;20033;-71
2021/05/23 00:57:32;;;;;;;10.68;5.30;;;;;;;16.26;68.32;100617.59;5051707;28;20056;-72
2021/05/23 00:59:57;;;;;;;8.18;4.47;;;;;;;16.28;67.42;100613.25;5033832;28;20125;-76
2021/05/23 01:02:44;;;;;;;11.05;4.60;;;;;;;16.12;67.56;100626.91;5051307;28;20033;-71
2021/05/23 01:05:16;;;;;;;6.22;3.70;;;;;;;15.98;67.51;100613.66;5051256;28;20029;-72
2021/05/23 01:07:42;;;;;;;7.47;4.03;;;;;;;15.84;67.81;100613.41;5025430;28;20114;-71
2021/05/23 01:10:17;;;;;;;4.95;3.70;;;;;;;15.79;68.27;100625.44;5051569;28;20029;-72
2021/05/23 01:12:58;;;;;;;5.57;3.63;;;;;;;15.77;68.59;100629.75;5051813;28;20024;-71
2021/05/23 01:15:48;;;;;;;4.35;3.45;;;;;;;15.75;68.53;100618.41;5016169;28;20036;-70
2021/05/23 01:18:16;;;;;;;6.20;3.83;;;;;;;15.94;68.12;100633.56;5049945;28;20110;-72
2021/05/23 01:20:59;;;;;;;4.35;3.42;;;;;;;15.93;68.06;100631.78;5033622;28;20033;-71
2021/05/23 01:23:35;;;;;;;6.88;3.70;;;;;;;15.74;67.77;100577.59;5051275;28;20068;-71
2021/05/23 01:26:10;;;;;;;5.68;3.63;;;;;;;15.93;67.18;100620.50;5050988;28;20033;-70
2021/05/23 01:28:50;;;;;;;6.80;3.58;;;;;;;15.82;67.09;100612.50;5033083;28;20116;-70
2021/05/23 01:31:18;;;;;;;4.53;3.60;;;;;;;15.68;67.74;100615.69;5051319;28;20054;-71
2021/05/23 01:33:49;;;;;;;4.20;3.78;;;;;;;15.40;67.98;100575.25;5051190;28;20506;-70
2021/05/23 01:36:14;;;;;;;4.85;3.65;;;;;;;15.55;68.62;100605.03;5033242;28;20040;-75
2021/05/23 01:38:40;;;;;;;4.50;3.80;;;;;;;15.42;68.42;100590.94;5051051;28;20029;-71
2021/05/23 01:41:08;;;;;;;4.50;3.70;;;;;;;15.27;68.28;100561.16;5034395;28;20526;-71
2021/05/23 01:43:34;;;;;;;4.72;3.90;;;;;;;15.57;68.53;100606.81;5050781;28;20096;-74
2021/05/23 01:46:01;;;;;;;5.03;4.18;;;;;;;15.64;68.54;100600.88;5050749;28;20469;-75
2021/05/23 01:48:27;;;;;;;5.28;3.90;;;;;;;15.67;68.26;100592.25;5033454;28;20399;-71
2021/05/23 01:50:52;;;;;;;5.55;3.90;;;;;;;15.75;67.58;100601.09;5051254;28;20040;-70
2021/05/23 01:53:18;;;;;;;7.05;4.43;;;;;;;15.72;67.93;100607.97;5051174;28;20033;-71
2021/05/23 01:55:44;;;;;;;6.40;4.43;;;;;;;15.68;68.48;100600.06;5050524;28;20028;-72
2021/05/23 01:58:09;;;;;;;6.75;4.60;;;;;;;15.25;69.54;100546.38;5050789;28;20458;-74
2021/05/23 02:00:38;;;;;;;6.32;4.75;;;;;;;15.57;70.00;100630.22;5050892;28;20423;-71
2021/05/23 02:03:09;;;;;;;8.05;4.72;;;;;;;15.59;69.71;100628.56;5051016;28;20075;-71
2021/05/23 02:05:38;;;;;;;4.88;4.15;;;;;;;15.22;69.18;100573.19;5050956;28;20060;-71
2021/05/23 02:08:04;;;;;;;4.95;4.03;;;;;;;15.35;68.63;100619.44;5050943;28;20029;-70
2021/05/23 02:10:29;;;;;;;5.85;3.58;;;;;;;14.93;68.62;100560.50;5050961;28;20086;-70
2021/05/23 02:12:57;;;;;;;7.07;3.60;;;;;;;15.29;68.66;100615.81;5050937;28;20025;-69
2021/05/23 02:15:23;;;;;;;5.13;3.65;;;;;;;15.18;69.08;100624.28;5050715;28;20111;-70
2021/05/23 02:17:49;;;;;;;6.60;3.42;;;;;;;14.98;69.21;100600.47;5050708;28;20103;-69
2021/05/23 02:20:24;;;;;;;6.55;3.75;;;;;;;15.06;69.35;100610.16;5050573;28;20117;-71
2021/05/23 02:22:51;;;;;;;8.38;4.03;;;;;;;15.01;69.25;100613.50;5049014;28;20551;-70
2021/05/23 02:25:18;;;;;;;6.95;3.20;;;;;;;15.14;68.80;100629.38;5050770;28;20147;-71
2021/05/23 02:27:47;;;;;;;4.80;3.33;;;;;;;15.03;69.09;100632.63;5050281;28;20499;-75
2021/05/23 02:30:16;;;;;;;10.30;3.72;;;;;;;15.02;68.56;100617.88;5050566;28;20025;-70
2021/05/23 02:32:42;;;;;;;7.23;4.10;;;;;;;14.70;68.41;100566.09;5050509;28;20025;-74
2021/05/23 02:35:10;;;;;;;5.10;3.10;;;;;;;15.02;68.69;100638.66;5050604;28;20294;-71
2021/05/23 02:37:36;;;;;;;4.35;3.42;;;;;;;15.04;68.48;100642.19;5050271;28;20029;-70
2021/05/23 02:40:13;;;;;;;6.70;3.70;;;;;;;14.91;68.31;100592.50;5032859;28;20033;-70
2021/05/23 02:42:40;;;;;;;9.02;3.65;;;;;;;15.24;67.55;100643.44;5050660;28;20032;-71
2021/05/23 02:45:10;;;;;;;7.25;3.50;;;;;;;15.17;67.82;100642.47;5032172;28;20062;-71
2021/05/23 02:47:37;;;;;;;5.05;3.35;;;;;;;14.85;68.55;100625.34;5028999;28;20103;-71
2021/05/23 02:50:05;;;;;;;7.82;3.60;;;;;;;14.80;69.13;100652.06;5030618;28;20033;-70
2021/05/23 02:52:30;;;;;;;6.47;3.22;;;;;;;14.78;69.35;100645.94;5031076;28;20068;-76
2021/05/23 02:54:56;;;;;;;8.38;3.75;;;;;;;14.75;69.26;100645.88;5032345;28;20057;-72
2021/05/23 02:57:22;;;;;;;9.07;3.58;;;;;;;14.50;69.67;100619.28;5034436;28;20018;-70
2021/05/23 02:59:47;;;;;;;4.50;3.42;;;;;;;14.55;69.44;100638.47;5033992;28;20048;-71
2021/05/23 03:02:13;;;;;;;6.32;3.50;;;;;;;14.51;69.97;100650.50;5034475;28;20075;-71
2021/05/23 03:04:38;;;;;;;7.60;3.78;;;;;;;14.46;70.20;100654.72;5034112;28;20396;-75
2021/05/23 03:07:04;;;;;;;6.15;3.40;;;;;;;14.48;70.09;100646.94;5031576;28;20045;-74
2021/05/23 03:09:30;;;;;;;4.85;3.63;;;;;;;14.47;70.00;100642.63;5032025;28;20540;-70
2021/05/23 03:11:56;;;;;;;5.80;3.97;;;;;;;14.44;69.89;100650.31;5031532;28;20073;-71
2021/05/23 03:14:23;;;;;;;8.27;4.15;;;;;;;14.52;70.16;100664.38;5031861;28;20108;-70
2021/05/23 03:16:48;;;;;;;9.25;3.70;;;;;;;14.60;70.32;100660.22;5031153;28;20040;-72
2021/05/23 03:19:14;;;;;;;9.60;4.10;;;;;;;14.37;70.12;100603.41;5031188;28;20034;-71
2021/05/23 03:21:40;;;;;;;6.95;4.10;;;;;;;14.47;73.00;100645.22;5031223;28;20487;-72
2021/05/23 03:24:06;;;;;;;10.18;5.07;;;;;;;13.91;76.14;100587.59;5031324;28;20032;-73
2021/05/23 03:26:34;;;;;;;6.25;4.45;;;;;;;14.42;75.60;100654.59;5031383;28;20139;-71
2021/05/23 03:29:00;;;;;;;8.82;5.20;;;;;;;14.15;75.13;100588.16;5031328;28;20107;-72
2021/05/23 03:31:25;;;;;;;6.90;4.80;;;;;;;14.60;76.59;100644.63;5031054;28;20484;-71
2021/05/23 03:33:51;;;;;;;7.57;4.90;;;;;;;13.93;76.93;100525.34;5031557;28;20550;-71
2021/05/23 03:36:16;;;;;;;9.95;5.57;;;;;;;14.52;77.39;100636.66;5030909;28;20030;-75
2021/05/23 03:38:44;;;;;;;8.13;5.57;;;;;;;14.34;78.48;100621.53;5028452;28;20499;-70
2021/05/23 03:41:10;;;;;;;9.15;6.20;;;;;;;14.38;78.23;100646.72;5032686;28;20384;-70
2021/05/23 03:43:35;;;;;;;7.68;5.85;;;;;;;14.24;77.46;100637.72;5033379;28;20399;-69
2021/05/23 03:46:01;;;;;;;7.57;5.30;;;;;;;14.28;77.26;100643.88;5033595;28;20033;-69
2021/05/23 03:48:26;;;;;;;10.40;5.28;;;;;;;14.11;77.15;100654.72;5053687;28;20028;-70
2021/05/23 03:50:52;;;;;;;8.35;5.35;;;;;;;14.18;76.33;100655.75;5035625;28;20033;-69
2021/05/23 03:53:17;;;;;;;7.45;5.00;;;;;;;14.07;76.21;100640.78;5053850;28;20040;-72
2021/05/23 03:55:43;;;;;;;8.75;5.40;;;;;;;14.12;76.01;100664.28;5053089;28;20029;-70
2021/05/23 03:58:08;;;;;;;7.28;4.75;;;;;;;13.71;75.80;100594.88;5053325;28;20108;-73
2021/05/23 04:00:35;;;;;;;5.75;4.53;;;;;;;14.24;74.66;100672.38;5052862;28;20032;-69
2021/05/23 04:03:01;;;;;;;6.03;5.20;;;;;;;14.29;74.02;100682.00;5053124;28;20029;-70
2021/05/23 04:05:28;;;;;;;6.15;4.40;;;;;;;14.30;73.45;100688.94;5034630;28;20045;-70
2021/05/23 04:07:54;;;;;;;7.38;4.57;;;;;;;14.08;74.16;100663.31;5040685;28;20028;-71
2021/05/23 04:10:24;;;;;;;10.10;4.57;;;;;;;14.03;75.04;100683.09;5052579;28;20395;-69
2021/05/23 04:12:50;;;;;;;5.97;4.57;;;;;;;13.53;75.76;100597.88;5034662;28;20059;-69
2021/05/23 04:15:18;;;;;;;8.07;5.28;;;;;;;14.17;75.76;100686.03;5052453;28;20021;-70
2021/05/23 04:17:44;;;;;;;7.65;6.32;;;;;;;14.15;76.05;100656.53;5052489;28;20028;-68
2021/05/23 04:20:12;;;;;;;13.85;6.25;;;;;;;13.99;76.17;100612.88;5052842;28;20032;-69
2021/05/23 04:22:38;;;;;;;12.93;9.43;;;;;;;14.37;76.86;100683.94;5052385;28;20159;-70
2021/05/23 04:25:08;;;;;;;11.50;10.30;;;;;;;14.24;77.81;100685.34;5052879;28;20017;-69
2021/05/23 04:27:34;;;;;;;11.45;10.27;;;;;;;14.20;77.82;100682.63;5052779;28;20035;-70
2021/05/23 04:30:00;;;;;;;13.63;11.68;;;;;;;14.15;77.88;100677.31;5052458;28;20037;-70
2021/05/23 04:32:25;;;;;;;13.20;11.73;;;;;;;13.78;78.01;100608.00;5035398;28;20026;-70
2021/05/23 04:34:51;;;;;;;16.33;12.75;;;;;;;14.21;78.61;100687.00;5034699;28;20055;-73
2021/05/23 04:37:16;;;;;;;15.50;12.57;;;;;;;14.15;79.05;100689.44;5052508;28;20033;-70
2021/05/23 04:39:43;;;;;;;12.98;11.60;;;;;;;14.03;80.06;100688.28;5052258;28;20480;-69
2021/05/23 04:42:09;;;;;;;14.88;12.68;;;;;;;13.95;80.95;100699.28;5052082;28;20032;-71
2021/05/23 04:44:34;;;;;;;13.18;11.88;;;;;;;14.08;81.10;100706.53;5052142;28;20033;-70
2021/05/23 04:47:00;;;;;;;12.95;11.57;;;;;;;14.18;81.41;100713.75;5052435;28;20049;-70
2021/05/23 04:49:25;;;;;;;12.93;11.15;;;;;;;14.33;81.03;100707.19;5052173;28;20024;-70
2021/05/23 04:51:51;;;;;;;11.35;10.05;;;;;;;14.36;81.07;100707.28;5067702;28;20021;-70
2021/05/23 04:54:17;;;;;;;13.40;10.60;;;;;;;14.45;81.31;100712.69;5052223;28;20025;-70
2021/05/23 04:56:42;;;;;;;11.38;10.27;;;;;;;14.50;80.92;100703.28;5052318;28;20073;-69
2021/05/23 04:59:08;;;;;;;11.98;10.18;;;;;;;14.69;80.88;100725.47;5052114;28;20529;-70
2021/05/23 05:01:33;;;;;;;9.43;8.43;;;;;;;14.83;80.21;100720.59;5052153;28;20516;-69
2021/05/23 05:03:59;;;;;;;9.93;8.25;;;;;;;14.89;79.59;100717.22;5052113;28;20074;-70
2021/05/23 05:06:24;;;;;;;8.85;6.55;;;;;;;15.02;79.78;100706.28;5052144;28;20120;-69
2021/05/23 05:08:50;;;;;;;10.07;7.80;;;;;;;15.00;79.93;100713.19;5052072;28;20052;-74
2021/05/23 05:11:18;;;;;;;11.98;8.57;;;;;;;14.96;80.24;100700.06;5034214;28;20163;-70
2021/05/23 05:13:43;;;;;;;12.65;8.10;;;;;;;15.19;79.87;100722.25;5051838;28;20048;-69
2021/05/23 05:16:09;;;;;;;10.45;7.10;;;;;;;14.94;79.85;100652.34;5051707;28;20021;-70
2021/05/23 05:18:35;;;;;;;8.95;7.28;;;;;;;15.43;79.89;100731.44;5066188;28;20025;-70
2021/05/23 05:21:02;;;;;;;8.00;6.22;;;;;;;15.49;78.68;100726.38;5051718;28;20031;-70
2021/05/23 05:23:27;;;;;;;7.40;5.57;;;;;;;15.56;78.31;100742.09;5033688;28;20056;-69
2021/05/23 05:25:53;;;;;;;6.82;5.38;;;;;;;15.58;78.96;100736.09;5051630;28;20059;-70
2021/05/23 05:28:18;;;;;;;8.75;6.13;;;;;;;15.66;79.02;100750.16;5051726;28;20068;-70
2021/05/23 05:30:44;;;;;;;9.45;6.00;;;;;;;15.62;79.92;100740.50;5033911;28;20029;-71
2021/05/23 05:33:09;;;;;;;6.90;6.20;;;;;;;15.85;80.15;100738.41;5051580;28;20029;-70
2021/05/23 05:35:35;;;;;;;9.30;7.15;;;;;;;15.99;78.37;100743.00;5067142;28;20419;-69
2021/05/23 05:38:00;;;;;;;11.55;7.03;;;;;;;16.12;77.82;100746.72;5051495;28;20072;-70
2021/05/23 05:40:25;;;;;;;9.25;6.30;;;;;;;16.21;77.53;100746.88;5051412;28;20525;-69
2021/05/23 05:42:51;;;;;;;9.57;6.72;;;;;;;16.29;77.39;100747.91;5051078;28;20028;-70
2021/05/23 05:45:17;;;;;;;8.65;7.28;;;;;;;16.40;76.95;100755.91;5051446;28;20487;-70
2021/05/23 05:47:42;;;;;;;8.38;6.38;;;;;;;16.48;75.35;100745.63;5066166;28;20540;-71
2021/05/23 05:50:09;;;;;;;8.00;6.15;;;;;;;16.25;75.45;100686.19;5034106;28;20029;-70
2021/05/23 05:52:34;;;;;;;9.57;6.40;;;;;;;16.75;73.82;100750.41;5035999;28;20094;-70
2021/05/23 05:55:00;;;;;;;7.85;5.97;;;;;;;16.52;73.81;100697.88;5050684;28;20045;-70
2021/05/23 05:57:25;;;;;;;7.20;6.10;;;;;;;16.93;73.72;100743.75;5050887;28;20024;-73
2021/05/23 05:59:51;;;;;;;7.75;6.30;;;;;;;16.93;73.02;100748.97;5049468;28;20021;-70
2021/05/23 06:02:17;;;;;;;8.15;6.03;;;;;;;16.60;73.02;100692.81;5051072;28;20033;-69
2021/05/23 06:04:42;;;;;;;14.10;6.05;;;;;;;17.11;72.97;100754.47;5050721;28;20064;-72
2021/05/23 06:07:08;;;;;;;9.05;6.60;;;;;;;16.92;72.35;100711.59;5049846;28;20036;-69
2021/05/23 06:09:33;;;;;;;9.80;6.78;;;;;;;17.32;72.18;100758.25;5050674;28;20471;-72
2021/05/23 06:11:59;;;;;;;7.93;5.82;;;;;;;17.40;72.36;100763.56;5050514;28;20495;-70
2021/05/23 06:14:24;;;;;;;9.10;6.22;;;;;;;17.45;72.08;100764.50;5066329;28;20068;-72
2021/05/23 06:16:50;;;;;;;7.53;6.30;;;;;;;17.36;71.67;100765.25;5050653;28;20013;-72
2021/05/23 06:19:16;;;;;;;8.77;6.72;;;;;;;17.41;72.13;100763.59;5050677;28;20021;-69
2021/05/23 06:21:41;;;;;;;9.95;7.30;;;;;;;17.45;72.10;100767.13;5048139;28;20411;-71
2021/05/23 06:24:07;;;;;;;9.10;7.40;;;;;;;17.63;70.69;100774.28;5049336;28;20139;-72
2021/05/23 06:26:33;;;;;;;14.90;7.72;;;;;;;17.74;70.32;100767.47;5049293;28;20033;-70
2021/05/23 06:28:58;;;;;;;8.73;6.97;;;;;;;17.99;69.87;100767.78;5055430;28;20025;-70
2021/05/23 06:31:25;;;;;;;8.73;7.35;;;;;;;17.99;69.03;100764.31;5054761;28;20040;-71
2021/05/23 06:33:51;;;;;;;10.82;7.70;;;;;;;17.78;68.45;100750.09;5054115;28;20031;-72
2021/05/23 06:36:17;;;;;;;10.50;7.72;;;;;;;17.91;70.60;100758.97;5054019;28;20025;-71
2021/05/23 06:38:42;;;;;;;12.18;8.05;;;;;;;17.89;69.34;100766.78;5054338;28;20505;-72
2021/05/23 06:41:08;;;;;;;12.57;7.97;;;;;;;17.87;69.78;100762.41;5036884;28;20028;-72
2021/05/23 06:43:33;;;;;;;8.45;6.57;;;;;;;17.91;67.91;100751.16;5054477;28;20098;-72
2021/05/23 06:45:59;;;;;;;9.18;6.95;;;;;;;18.18;66.84;100758.44;5054644;28;20036;-70
2021/05/23 06:48:25;;;;;;;10.65;6.65;;;;;;;18.13;67.23;100752.28;5070030;28;20048;-72
2021/05/23 06:50:51;;;;;;;8.95;6.72;;;;;;;18.32;67.14;100749.84;5036786;28;20467;-72
2021/05/23 06:53:17;;;;;;;8.18;6.38;;;;;;;18.19;65.98;100700.06;5054491;28;20086;-71
2021/05/23 06:55:42;;;;;;;8.35;6.45;;;;;;;18.66;65.28;100742.31;5054366;28;20021;-71
2021/05/23 06:58:08;;;;;;;7.60;5.97;;;;;;;18.57;64.65;100696.91;5055191;28;20029;-71
2021/05/23 07:00:34;;;;;;;9.68;6.45;;;;;;;18.81;63.77;100734.56;5069998;28;20060;-70
2021/05/23 07:03:02;;;;;;;7.18;5.30;;;;;;;18.98;64.20;100749.53;5054661;28;20067;-71
2021/05/23 07:05:28;;;;;;;6.97;5.40;;;;;;;19.22;64.13;100746.22;5054581;28;20064;-71
2021/05/23 07:07:53;;;;;;;8.30;4.80;;;;;;;19.34;63.13;100742.78;5054505;28;20068;-71
2021/05/23 07:10:19;;;;;;;6.10;5.07;;;;;;;19.46;62.27;100736.72;5054408;28;20033;-71
2021/05/23 07:12:44;;;;;;;6.13;4.65;;;;;;;19.58;62.83;100738.50;5054701;28;20028;-71
2021/05/23 07:15:10;;;;;;;6.68;4.85;;;;;;;19.47;62.19;100748.97;5054361;28;20486;-71
2021/05/23 07:17:36;;;;;;;10.13;5.65;;;;;;;19.10;64.86;100692.03;5054363;28;20513;-71
2021/05/23 07:20:03;;;;;;;8.52;5.25;;;;;;;19.36;63.44;100749.75;5069713;28;20108;-71
2021/05/23 07:22:28;;;;;;;8.02;5.10;;;;;;;19.36;63.96;100727.97;5054149;28;20024;-71
2021/05/23 07:24:54;;;;;;;7.53;4.78;;;;;;;19.40;63.81;100721.84;5053996;28;20490;-71
2021/05/23 07:27:19;;;;;;;5.78;4.65;;;;;;;19.82;62.94;100743.84;5054258;28;20029;-70
2021/05/23 07:29:45;;;;;;;11.18;5.22;;;;;;;19.94;61.40;100721.19;5053943;28;20487;-70
2021/05/23 07:32:10;;;;;;;6.57;5.20;;;;;;;20.06;61.15;100742.19;5053999;28;20028;-71
2021/05/23 07:34:36;;;;;;;7.10;4.78;;;;;;;20.07;61.09;100719.50;5054047;28;20071;-71
2021/05/23 07:37:01;;;;;;;6.25;4.38;;;;;;;20.06;62.32;100708.13;5053697;28;20021;-70
2021/05/23 07:39:27;;;;;;;6.18;4.65;;;;;;;20.26;61.56;100723.91;5053805;28;20073;-71
2021/05/23 07:41:52;;;;;;;6.57;4.18;;;;;;;20.32;60.72;100723.03;5068219;28;20082;-70
2021/05/23 07:44:18;;;;;;;6.28;4.28;;;;;;;20.52;61.76;100726.53;5053833;28;20057;-71
2021/05/23 07:46:44;;;;;;;6.32;4.60;;;;;;;20.59;59.94;100731.78;5069285;28;20053;-70
2021/05/23 07:49:10;;;;;;;5.60;3.97;;;;;;;20.57;60.88;100730.91;5053819;28;20407;-70
2021/05/23 07:51:36;;;;;;;6.32;4.40;;;;;;;20.24;61.42;100657.47;5052523;28;20033;-69
2021/05/23 07:54:02;;;;;;;6.72;4.50;;;;;;;20.75;63.28;100724.78;5053776;28;20025;-71
2021/05/23 07:56:28;;;;;;;6.20;4.78;;;;;;;20.73;60.15;100709.06;5053794;28;20116;-73
2021/05/23 07:58:54;;;;;;;5.43;4.25;;;;;;;20.83;60.80;100723.91;5051924;28;20147;-76
2021/05/23 08:01:20;;;;;;;8.70;4.22;;;;;;;20.89;60.36;100711.69;5053946;28;20048;-72
2021/05/23 08:03:45;;;;;;;6.72;3.80;;;;;;;20.65;59.14;100637.34;5018217;28;20068;-73
2021/05/23 08:06:13;;;;;;;5.97;4.20;;;;;;;20.97;59.39;100673.13;5053406;28;20060;-72
2021/05/23 08:08:42;;;;;;;7.03;4.47;;;;;;;21.16;58.65;100708.97;5052767;28;20498;-73
2021/05/23 08:11:08;;;;;;;7.50;4.07;;;;;;;21.23;59.95;100720.31;5051384;28;20418;-73
2021/05/23 08:13:34;;;;;;;6.10;4.82;;;;;;;21.31;61.76;100715.06;5052847;28;20479;-71
2021/05/23 08:16:02;;;;;;;6.97;4.78;;;;;;;20.85;61.71;100648.69;5035526;28;20039;-72
2021/05/23 08:18:47;;;;;;;7.07;5.20;;;;;;;20.89;63.01;100661.81;5030781;28;20037;-71
2021/05/23 08:21:12;;;;;;;7.07;4.50;;;;;;;21.19;62.75;100720.34;5030853;28;20068;-70
2021/05/23 08:23:38;;;;;;;5.70;4.10;;;;;;;20.93;59.83;100653.03;5032082;28;20036;-70
2021/05/23 08:26:04;;;;;;;6.78;4.25;;;;;;;21.45;60.84;100723.75;5035290;28;20065;-71
2021/05/23 08:28:32;;;;;;;5.20;4.15;;;;;;;21.40;60.64;100701.88;5049657;28;20036;-72
2021/05/23 08:30:58;;;;;;;5.22;4.72;;;;;;;21.66;60.65;100729.84;5041057;28;20116;-73
2021/05/23 08:33:24;;;;;;;6.78;4.45;;;;;;;21.74;61.32;100720.13;5035104;28;20030;-71
2021/05/23 08:35:49;;;;;;;6.82;3.97;;;;;;;21.94;58.58;100725.31;5029946;28;20121;-70
2021/05/23 08:38:15;;;;;;;5.97;4.78;;;;;;;22.05;61.67;100722.59;5029936;28;20094;-70
2021/05/23 08:40:43;;;;;;;5.47;4.53;;;;;;;22.16;58.08;100726.91;5029583;28;20028;-71
2021/05/23 08:43:10;;;;;;;7.82;3.78;;;;;;;22.25;57.73;100729.47;5029731;28;20048;-70
2021/05/23 08:45:38;;;;;;;7.57;4.00;;;;;;;22.27;58.66;100711.94;5029693;28;20037;-73
2021/05/23 08:48:05;;;;;;;5.53;3.83;;;;;;;22.46;58.07;100721.44;4998995;28;20046;-72
2021/05/23 08:50:31;;;;;;;4.95;4.22;;;;;;;22.32;57.17;100673.31;4983744;28;20033;-69
2021/05/23 08:53:00;;;;;;;5.90;4.30;;;;;;;22.74;57.30;100715.97;4990672;28;20077;-71
2021/05/23 08:55:26;;;;;;;13.68;4.68;;;;;;;22.91;59.04;100730.72;4993880;28;20112;-71
2021/05/23 08:57:55;;;;;;;10.05;4.30;;;;;;;23.07;57.80;100727.03;5012787;28;20526;-70
2021/05/23 09:00:22;;;;;;;5.28;3.80;;;;;;;23.29;56.96;100721.56;5020611;28;20057;-73
2021/05/23 09:02:56;;;;;;;15.63;5.45;;;;;;;23.14;56.84;100659.38;5011518;28;20069;-72
2021/05/23 09:05:42;;;;;;;8.20;4.10;;;;;;;23.65;56.16;100719.34;5021825;28;20030;-73
2021/05/23 09:08:14;;;;;;;8.45;3.90;;;;;;;23.77;54.40;100715.66;5021373;28;20120;-69
2021/05/23 09:10:41;;;;;;;5.05;3.70;;;;;;;23.89;54.62;100714.63;5020898;28;20029;-70
2021/05/23 09:13:07;;;;;;;6.15;3.90;;;;;;;23.88;55.12;100703.19;5015396;28;20038;-72
2021/05/23 09:15:33;;;;;;;7.10;3.97;;;;;;;23.88;55.82;100711.09;5010204;28;20034;-69
2021/05/23 09:18:03;;;;;;;7.60;3.78;;;;;;;23.97;54.13;100707.50;5012607;28;21885;-69
2021/05/23 09:20:29;;;;;;;6.45;3.97;;;;;;;23.87;54.13;100685.63;5016823;28;20057;-71
2021/05/23 09:22:55;;;;;;;3.95;2.92;;;;;;;24.15;55.04;100713.38;5018937;28;20532;-71
2021/05/23 09:25:29;;;;;;;6.25;3.83;;;;;;;23.96;51.52;100657.44;5014829;28;20487;-72
2021/05/23 09:27:55;;;;;;;4.68;3.53;;;;;;;24.26;54.09;100707.94;4991448;28;20144;-72
2021/05/23 09:30:23;;;;;;;4.78;3.58;;;;;;;24.29;53.59;100706.13;4999734;28;20173;-72
2021/05/23 09:32:51;;;;;;;6.85;3.28;;;;;;;24.36;53.13;100705.16;5009676;28;20021;-70
2021/05/23 09:35:17;;;;;;;5.60;3.38;;;;;;;24.38;53.46;100699.84;5008693;28;20088;-72
2021/05/23 09:37:44;;;;;;;5.28;3.72;;;;;;;24.31;53.00;100707.00;5018386;28;20049;-73
2021/05/23 09:40:18;;;;;;;4.82;3.72;;;;;;;24.08;53.21;100709.97;5050648;28;20475;-73
2021/05/23 09:42:49;;;;;;;5.45;3.92;;;;;;;24.25;53.14;100719.41;5032517;28;20499;-70
2021/05/23 09:45:15;;;;;;;4.80;3.60;;;;;;;24.33;54.64;100713.09;5033309;28;20096;-71
2021/05/23 09:47:55;;;;;;;5.95;3.50;;;;;;;24.36;53.60;100697.22;5048755;28;20056;-72
2021/05/23 09:50:41;;;;;;;5.32;3.30;;;;;;;24.47;53.91;100701.44;5032332;28;20039;-69
2021/05/23 09:53:42;;;;;;;5.75;3.78;;;;;;;24.78;52.26;100693.03;5049631;28;20029;-71
2021/05/23 09:56:10;;;;;;;4.45;3.00;;;;;;;25.02;50.84;100689.03;4933355;28;20391;-75
2021/05/23 09:58:45;;;;;;;6.75;3.50;;;;;;;25.13;49.53;100679.13;4947567;29;20045;-74
2021/05/23 10:01:24;;;;;;;4.63;2.97;;;;;;;25.28;48.97;100677.06;4949487;28;20061;-72
2021/05/23 10:03:50;;;;;;;;;;;;;;;25.47;49.65;100686.41;4948165;28;20034;-73
2021/05/23 10:06:35;;;;;;;3.90;2.92;;;;;;;25.67;48.96;100685.94;4950451;29;19915;-69
2021/05/23 10:09:01;;;;;;;4.15;2.83;;;;;;;25.78;48.42;100685.72;4952070;28;20594;-73
2021/05/23 10:11:27;;;;;;;3.40;2.90;;;;;;;25.95;47.27;100682.66;4960743;28;20042;-74
2021/05/23 10:13:52;;;;;;;4.53;3.03;;;;;;;26.10;47.62;100670.03;4961720;28;20491;-71
2021/05/23 10:16:19;;;;;;;4.03;3.03;;;;;;;26.28;47.31;100676.63;4958801;28;20050;-73
2021/05/23 10:18:46;;;;;;;5.03;2.90;;;;;;;26.50;46.99;100669.00;4960363;28;20050;-77
2021/05/23 10:21:13;;;;;;;5.13;3.10;;;;;;;26.59;46.85;100652.88;4964606;28;20038;-76
2021/05/23 10:24:08;;;;;;;4.05;3.00;;;;;;;26.77;46.22;100667.44;4945111;28;20489;-77
2021/05/23 10:26:34;;;;;;;2.95;2.60;;;;;;;26.97;46.25;100666.00;4921936;29;20044;-73
2021/05/23 10:29:01;;;;;;;4.60;2.80;;;;;;;27.04;45.20;100656.97;4913088;29;20535;-71
2021/05/23 10:31:31;;;;;;;3.72;2.83;;;;;;;27.07;48.07;100656.88;4939699;28;20049;-73
2021/05/23 10:33:57;;;;;;;3.97;2.72;;;;;;;27.18;45.93;100651.28;5008576;28;20038;-71
2021/05/23 10:36:42;;;;;;;4.38;2.63;;;;;;;27.37;44.63;100648.06;5008851;28;20071;-72
2021/05/23 10:39:15;;;;;;;2.78;2.30;;;;;;;27.54;43.91;100651.13;5008565;28;20034;-71
2021/05/23 10:41:41;;;;;;;3.05;2.40;;;;;;;27.39;45.00;100588.78;5008542;28;20038;-73
2021/05/23 10:44:10;;;;;;;4.40;2.47;;;;;;;27.82;42.80;100644.06;5008890;28;20067;-71
2021/05/23 10:46:52;;;;;;;3.03;2.38;;;;;;;27.63;47.72;100591.59;5008268;28;20054;-74
2021/05/23 10:49:19;;;;;;;5.10;2.70;;;;;;;27.95;46.36;100645.38;5008871;28;20034;-70
2021/05/23 10:51:52;;;;;;;3.63;2.10;;;;;;;28.08;44.80;100641.44;4988787;28;20447;-70
2021/05/23 10:54:18;;;;;;;3.63;2.15;;;;;;;27.85;40.03;100644.84;4941896;29;20031;-70
2021/05/23 10:57:04;;;;;;;5.13;2.35;;;;;;;27.91;40.39;100638.44;4931411;29;20048;-71
2021/05/23 10:59:31;;;;;;;2.95;2.10;;;;;;;28.10;38.94;100641.38;4874652;29;20101;-70
2021/05/23 11:01:57;;;;;;;4.78;1.88;;;;;;;28.37;36.11;100638.72;4879962;29;20162;-70
2021/05/23 11:04:24;;;;;;;2.47;2.03;;;;;;;28.27;36.64;100618.72;4943125;29;20522;-70
2021/05/23 11:06:50;;;;;;;3.28;2.10;;;;;;;28.29;36.73;100617.75;4949747;29;20043;-71
2021/05/23 11:09:21;;;;;;;5.95;2.30;;;;;;;28.30;37.54;100621.28;4950272;29;20141;-70
2021/05/23 11:11:47;;;;;;;4.20;2.10;;;;;;;27.84;37.66;100557.31;4950011;29;20047;-69
2021/05/23 11:14:21;;;;;;;3.92;2.17;;;;;;;28.15;37.60;100615.59;4950249;29;20094;-70
2021/05/23 11:16:52;;;;;;;2.63;2.10;;;;;;;28.03;38.44;100554.94;4937423;29;20494;-71
2021/05/23 11:19:19;;;;;;;5.45;2.00;;;;;;;28.60;36.54;100618.44;4953562;29;20046;-70
2021/05/23 11:21:47;;;;;;;2.70;1.90;;;;;;;28.51;36.94;100607.25;4952505;29;20035;-71
2021/05/23 11:24:13;;;;;;;4.10;2.05;;;;;;;28.74;37.53;100608.22;4952821;29;20041;-72
2021/05/23 11:26:39;;;;;;;4.05;1.92;;;;;;;28.39;35.55;100618.31;4953548;29;20071;-76